createdAt,value
2023-02-11T00:01:41.364Z,24.17
2023-02-11T00:04:12.367Z,25.37
2023-02-11T00:06:41.227Z,24.97
2023-02-11T00:09:09.795Z,23.53
2023-02-11T00:11:38.106Z,24.80
2023-02-11T00:14:08.975Z,24.05
2023-02-11T00:16:37.952Z,25.40
2023-02-11T00:19:06.750Z,25.63
2023-02-11T00:21:35.895Z,24.27
2023-02-11T00:24:04.373Z,24.00
2023-02-11T00:26:39.201Z,25.20
2023-02-11T00:29:09.128Z,24.52
2023-02-11T00:31:38.159Z,24.90
2023-02-11T00:34:06.426Z,24.70
2023-02-11T00:36:34.878Z,24.37
2023-02-11T00:39:03.307Z,25.50
2023-02-11T00:41:31.833Z,25.52
2023-02-11T00:44:00.411Z,24.30
2023-02-11T00:46:32.863Z,26.02
2023-02-11T00:49:01.242Z,24.10
2023-02-11T00:51:30.200Z,27.20
2023-02-11T00:53:58.842Z,25.63
2023-02-11T00:56:27.388Z,24.55
2023-02-11T00:58:55.636Z,26.40
2023-02-11T01:01:23.947Z,26.88
2023-02-11T01:03:54.611Z,26.80
2023-02-11T01:06:23.242Z,24.80
2023-02-11T01:08:51.527Z,25.80
2023-02-11T01:11:22.030Z,25.55
2023-02-11T01:13:51.331Z,26.50
2023-02-11T01:16:21.767Z,27.40
2023-02-11T01:18:51.028Z,26.87
2023-02-11T01:21:20.922Z,25.85
2023-02-11T01:23:50.945Z,27.13
2023-02-11T01:26:19.574Z,26.42
2023-02-11T01:28:47.993Z,26.63
2023-02-11T01:31:17.303Z,27.90
2023-02-11T01:33:45.584Z,26.08
2023-02-11T01:36:14.515Z,27.00
2023-02-11T01:38:44.669Z,29.10
2023-02-11T01:41:15.175Z,27.27
2023-02-11T01:43:46.554Z,28.15
2023-02-11T01:46:31.509Z,28.55
2023-02-11T01:49:05.007Z,29.40
2023-02-11T01:51:38.532Z,28.63
2023-02-11T01:54:28.249Z,27.58
2023-02-11T01:57:17.196Z,28.88
2023-02-11T01:59:53.546Z,29.60
2023-02-11T02:02:26.780Z,29.27
2023-02-11T02:05:00.762Z,30.10
2023-02-11T02:07:37.278Z,30.05
2023-02-11T02:10:13.044Z,30.42
2023-02-11T02:12:41.892Z,29.08
2023-02-11T02:15:24.511Z,30.33
2023-02-11T02:18:09.640Z,30.13
2023-02-11T02:21:11.731Z,28.98
2023-02-11T02:24:10.695Z,30.55
2023-02-11T02:27:28.069Z,30.30
2023-02-11T02:30:32.515Z,30.45
2023-02-11T02:33:23.595Z,29.88
2023-02-11T02:36:06.675Z,30.83
2023-02-11T02:38:42.092Z,30.70
2023-02-11T02:41:14.319Z,32.17
2023-02-11T02:43:46.705Z,32.03
2023-02-11T02:46:17.515Z,33.80
2023-02-11T02:48:49.496Z,31.20
2023-02-11T02:51:45.531Z,32.70
2023-02-11T02:54:36.943Z,31.50
2023-02-11T02:57:21.361Z,31.67
2023-02-11T03:00:05.633Z,32.38
2023-02-11T03:02:40.003Z,31.47
2023-02-11T03:05:18.536Z,33.55
2023-02-11T03:07:53.457Z,33.20
2023-02-11T03:10:27.939Z,32.88
2023-02-11T03:12:58.059Z,33.53
2023-02-11T03:15:29.182Z,33.25
2023-02-11T03:18:01.803Z,33.63
2023-02-11T03:20:37.044Z,33.40
2023-02-11T03:23:12.600Z,34.90
2023-02-11T03:25:47.136Z,34.65
2023-02-11T03:28:21.465Z,33.30
2023-02-11T03:30:55.705Z,33.63
2023-02-11T03:33:28.722Z,34.20
2023-02-11T03:36:03.576Z,35.50
2023-02-11T03:38:35.906Z,33.83
2023-02-11T03:41:10.703Z,35.13
2023-02-11T03:43:45.633Z,33.63
2023-02-11T03:46:17.891Z,32.55
2023-02-11T03:48:52.610Z,34.47
2023-02-11T03:51:24.584Z,33.30
2023-02-11T03:53:57.985Z,34.10
2023-02-11T03:56:30.619Z,35.13
2023-02-11T03:58:59.274Z,33.47
2023-02-11T04:01:27.543Z,32.80
2023-02-11T04:03:56.097Z,33.92
2023-02-11T04:06:35.344Z,33.58
2023-02-11T04:09:06.652Z,33.15
2023-02-11T04:11:34.843Z,34.38
2023-02-11T04:14:03.207Z,33.03
2023-02-11T04:16:31.961Z,31.15
2023-02-11T04:19:01.570Z,33.88
2023-02-11T04:21:29.956Z,32.20
2023-02-11T04:23:59.520Z,32.93
2023-02-11T04:26:28.505Z,34.33
2023-02-11T04:28:57.322Z,31.87
2023-02-11T04:31:26.044Z,34.42
2023-02-11T04:33:54.326Z,32.27
2023-02-11T04:36:23.218Z,32.50
2023-02-11T04:38:51.353Z,33.70
2023-02-11T04:41:21.627Z,33.70
2023-02-11T04:43:50.492Z,32.17
2023-02-11T04:46:18.768Z,34.35
2023-02-11T04:48:50.713Z,32.53
2023-02-11T04:51:19.163Z,33.00
2023-02-11T04:53:47.378Z,31.35
2023-02-11T04:56:18.727Z,32.87
2023-02-11T04:58:48.408Z,31.45
2023-02-11T05:01:17.889Z,33.47
2023-02-11T05:03:46.868Z,32.67
2023-02-11T05:06:15.831Z,31.17
2023-02-11T05:08:44.529Z,31.38
2023-02-11T05:11:18.258Z,32.63
2023-02-11T05:13:48.569Z,29.65
2023-02-11T05:16:17.555Z,30.45
2023-02-11T05:18:46.521Z,32.17
2023-02-11T05:21:17.004Z,33.38
2023-02-11T05:23:50.160Z,30.73
2023-02-11T05:26:19.789Z,32.38
2023-02-11T05:28:49.393Z,33.03
2023-02-11T05:31:18.556Z,33.72
2023-02-11T05:33:49.757Z,32.85
2023-02-11T05:36:18.025Z,34.30
2023-02-11T05:38:46.702Z,34.78
2023-02-11T05:41:14.897Z,33.40
2023-02-11T05:43:43.484Z,31.83
2023-02-11T05:46:13.019Z,33.50
2023-02-11T05:48:41.243Z,34.50
2023-02-11T05:51:10.661Z,33.00
2023-02-11T05:53:38.998Z,33.25
2023-02-11T05:56:08.127Z,34.55
2023-02-11T05:58:36.373Z,35.15
2023-02-11T06:01:04.933Z,34.43
2023-02-11T06:03:36.227Z,34.45
2023-02-11T06:06:05.381Z,34.95
2023-02-11T06:08:33.996Z,35.63
2023-02-11T06:11:02.233Z,35.53
2023-02-11T06:13:30.625Z,32.92
2023-02-11T06:16:03.535Z,36.38
2023-02-11T06:18:33.656Z,36.47
2023-02-11T06:21:08.257Z,35.38
2023-02-11T06:23:36.556Z,35.37
2023-02-11T06:26:08.841Z,37.47
2023-02-11T06:28:43.463Z,35.40
2023-02-11T06:31:11.864Z,34.25
2023-02-11T06:33:40.633Z,32.38
2023-02-11T06:36:17.020Z,36.78
2023-02-11T06:38:45.837Z,36.03
2023-02-11T06:41:15.774Z,34.88
2023-02-11T06:43:45.237Z,34.25
2023-02-11T06:46:13.523Z,32.92
2023-02-11T06:48:43.789Z,32.90
2023-02-11T06:51:15.454Z,34.47
2023-02-11T06:53:47.191Z,33.42
2023-02-11T06:56:17.887Z,30.80
2023-02-11T06:58:46.332Z,32.83
2023-02-11T07:01:16.659Z,31.98
2023-02-11T07:03:46.013Z,31.77
2023-02-11T07:06:19.192Z,33.80
2023-02-11T07:08:49.473Z,32.75
2023-02-11T07:11:24.318Z,34.28
2023-02-11T07:13:53.779Z,31.65
2023-02-11T07:16:22.656Z,32.90
2023-02-11T07:18:51.433Z,31.70
2023-02-11T07:21:22.654Z,31.73
2023-02-11T07:23:51.486Z,31.92
2023-02-11T07:26:22.955Z,32.08
2023-02-11T07:28:51.667Z,31.42
2023-02-11T07:31:23.647Z,32.30
2023-02-11T07:33:53.427Z,30.42
2023-02-11T07:36:23.619Z,34.25
2023-02-11T07:38:52.005Z,31.27
2023-02-11T07:41:22.570Z,31.17
2023-02-11T07:43:51.631Z,33.45
2023-02-11T07:46:22.645Z,31.02
2023-02-11T07:48:51.604Z,31.50
2023-02-11T07:51:23.597Z,33.03
2023-02-11T07:53:53.601Z,31.30
2023-02-11T07:56:23.653Z,29.90
2023-02-11T07:58:52.697Z,32.10
2023-02-11T08:01:25.300Z,32.42
2023-02-11T08:03:54.041Z,29.85
2023-02-11T08:06:25.259Z,30.75
2023-02-11T08:08:54.108Z,30.52
2023-02-11T08:11:24.732Z,32.65
2023-02-11T08:13:53.618Z,33.33
2023-02-11T08:16:24.203Z,34.15
2023-02-11T08:18:53.727Z,32.55
2023-02-11T08:21:24.448Z,33.03
2023-02-11T08:23:53.635Z,31.40
2023-02-11T08:26:24.338Z,32.33
2023-02-11T08:28:55.073Z,30.65
2023-02-11T08:31:25.730Z,32.30
2023-02-11T08:33:58.155Z,31.95
2023-02-11T08:36:29.590Z,31.88
2023-02-11T08:39:15.928Z,32.33
2023-02-11T08:41:46.419Z,29.40
2023-02-11T08:44:15.016Z,32.72
2023-02-11T08:46:43.290Z,32.15
2023-02-11T08:49:12.606Z,32.10
2023-02-11T08:51:42.614Z,30.98
2023-02-11T08:54:11.454Z,30.73
2023-02-11T08:56:40.694Z,32.42
2023-02-11T08:59:10.220Z,33.38
2023-02-11T09:01:38.386Z,31.15
2023-02-11T09:04:08.317Z,32.47
2023-02-11T09:06:36.453Z,34.95
2023-02-11T09:09:06.706Z,31.53
2023-02-11T09:11:37.983Z,31.83
2023-02-11T09:14:06.466Z,33.13
2023-02-11T09:16:37.273Z,31.35
2023-02-11T09:19:06.765Z,33.00
2023-02-11T09:21:35.856Z,32.53
2023-02-11T09:24:07.317Z,31.08
2023-02-11T09:26:37.254Z,32.20
2023-02-11T09:29:07.108Z,32.40
2023-02-11T09:31:37.205Z,29.20
2023-02-11T09:34:07.175Z,30.88
2023-02-11T09:36:40.805Z,28.50
2023-02-11T09:39:13.452Z,29.40
2023-02-11T09:42:09.592Z,29.30
2023-02-11T09:44:39.280Z,28.98
2023-02-11T09:47:20.779Z,29.02
2023-02-11T09:49:52.547Z,27.35
2023-02-11T09:52:31.846Z,28.85
2023-02-11T09:55:03.935Z,27.25
2023-02-11T09:57:35.159Z,27.13
2023-02-11T10:00:13.460Z,28.08
2023-02-11T10:02:54.898Z,27.08
2023-02-11T10:05:38.624Z,25.90
2023-02-11T10:08:15.834Z,25.70
2023-02-11T10:10:53.827Z,24.35
2023-02-11T10:13:34.465Z,26.13
2023-02-11T10:16:14.769Z,25.20
2023-02-11T10:18:55.210Z,23.83
2023-02-11T10:21:33.773Z,25.13
2023-02-11T10:24:05.785Z,25.25
2023-02-11T10:26:38.249Z,23.73
2023-02-11T10:29:19.724Z,26.60
2023-02-11T10:31:48.884Z,24.48
2023-02-11T10:34:17.631Z,25.23
2023-02-11T10:36:49.072Z,25.13
2023-02-11T10:39:21.109Z,26.00
2023-02-11T10:41:54.767Z,25.05
2023-02-11T10:44:28.855Z,25.23
2023-02-11T10:47:01.751Z,25.58
2023-02-11T10:49:40.907Z,25.75
2023-02-11T10:52:22.837Z,25.75
2023-02-11T10:55:17.494Z,26.20
2023-02-11T10:57:55.401Z,25.13
2023-02-11T11:00:38.786Z,24.42
2023-02-11T11:03:16.385Z,24.52
2023-02-11T11:05:50.039Z,25.75
2023-02-11T11:08:19.494Z,24.90
2023-02-11T11:10:49.708Z,25.20
2023-02-11T11:13:31.007Z,25.00
2023-02-11T11:16:10.085Z,24.30
2023-02-11T11:18:38.385Z,25.00
2023-02-11T11:21:08.580Z,24.88
2023-02-11T11:23:38.304Z,25.65
2023-02-11T11:26:09.583Z,23.30
2023-02-11T11:28:51.734Z,25.05
2023-02-11T11:31:23.989Z,25.67
2023-02-11T11:33:56.656Z,24.77
2023-02-11T11:36:33.057Z,28.23
2023-02-11T11:39:08.619Z,26.27
2023-02-11T11:41:36.998Z,26.10
2023-02-11T11:44:27.864Z,25.83
2023-02-11T11:47:18.535Z,26.90
2023-02-11T11:49:52.783Z,27.13
2023-02-11T11:52:34.685Z,26.30
2023-02-11T11:55:08.808Z,26.63
2023-02-11T11:57:39.949Z,26.50
2023-02-11T12:00:17.902Z,26.70
2023-02-11T12:03:15.094Z,26.52
2023-02-11T12:05:54.417Z,25.20
2023-02-11T12:08:33.224Z,26.33
2023-02-11T12:11:13.119Z,27.00
2023-02-11T12:13:50.098Z,26.25
2023-02-11T12:16:29.869Z,24.08
2023-02-11T12:19:28.244Z,24.77
2023-02-11T12:22:08.796Z,25.40
2023-02-11T12:24:57.586Z,24.33
2023-02-11T12:27:45.314Z,25.08
2023-02-11T12:30:30.034Z,24.45
2023-02-11T12:33:07.900Z,23.73
2023-02-11T12:35:45.196Z,25.33
2023-02-11T12:38:30.668Z,24.02
2023-02-11T12:41:16.266Z,23.90
2023-02-11T12:43:45.088Z,24.25
2023-02-11T12:46:38.191Z,24.80
2023-02-11T12:49:35.194Z,23.48
2023-02-11T12:52:13.701Z,23.25
2023-02-11T12:54:47.386Z,24.73
2023-02-11T12:57:22.313Z,24.63
2023-02-11T12:59:59.038Z,23.75
2023-02-11T13:02:41.781Z,24.90
2023-02-11T13:05:25.975Z,24.45
2023-02-11T13:07:56.976Z,22.38
2023-02-11T13:10:31.439Z,24.65
2023-02-11T13:13:18.478Z,23.45
2023-02-11T13:15:51.729Z,20.88
2023-02-11T13:18:33.589Z,23.52
2023-02-11T13:21:20.857Z,21.25
2023-02-11T13:23:56.706Z,22.00
2023-02-11T13:26:30.827Z,21.98
2023-02-11T13:29:14.657Z,21.23
2023-02-11T13:31:43.162Z,22.55
2023-02-11T13:34:25.864Z,22.33
2023-02-11T13:36:59.586Z,21.27
2023-02-11T13:39:28.063Z,21.48
2023-02-11T13:42:05.213Z,23.63
2023-02-11T13:44:35.827Z,23.50
2023-02-11T13:47:07.014Z,22.33
2023-02-11T13:49:40.787Z,22.63
2023-02-11T13:52:25.617Z,24.25
2023-02-11T13:54:56.201Z,22.13
2023-02-11T13:57:40.363Z,22.65
2023-02-11T14:00:47.308Z,22.92
2023-02-11T14:03:59.958Z,22.80
2023-02-11T14:06:47.358Z,22.90
2023-02-11T14:09:38.246Z,23.00
2023-02-11T14:12:32.830Z,22.35
2023-02-11T14:15:19.575Z,22.05
2023-02-11T14:17:52.423Z,20.27
2023-02-11T14:20:45.282Z,23.42
2023-02-11T14:23:27.205Z,22.25
2023-02-11T14:26:21.453Z,22.52
2023-02-11T14:28:53.112Z,22.63
2023-02-11T14:31:25.482Z,22.77
2023-02-11T14:34:25.252Z,22.92
2023-02-11T14:37:06.247Z,22.30
2023-02-11T14:39:49.526Z,24.63
2023-02-11T14:42:26.959Z,24.73
2023-02-11T14:45:00.041Z,26.10
2023-02-11T14:47:42.780Z,24.58
2023-02-11T14:50:26.685Z,25.40
2023-02-11T14:52:56.249Z,27.05
2023-02-11T14:55:31.536Z,25.42
2023-02-11T14:58:16.953Z,26.65
2023-02-11T15:00:51.933Z,25.70
2023-02-11T15:03:32.733Z,26.77
2023-02-11T15:06:03.817Z,26.20
2023-02-11T15:08:38.253Z,25.80
2023-02-11T15:11:13.244Z,27.00
2023-02-11T15:13:48.299Z,24.95
2023-02-11T15:16:22.702Z,24.40
2023-02-11T15:18:54.134Z,25.10
2023-02-11T15:21:24.391Z,23.42
2023-02-11T15:24:02.521Z,26.00
2023-02-11T15:26:32.037Z,24.02
2023-02-11T15:29:02.522Z,26.90
2023-02-11T15:31:34.924Z,25.13
2023-02-11T15:34:09.366Z,26.40
2023-02-11T15:36:39.754Z,26.10
2023-02-11T15:39:19.399Z,26.17
2023-02-11T15:41:47.881Z,25.95
2023-02-11T15:44:31.714Z,29.23
2023-02-11T15:47:00.609Z,26.40
2023-02-11T15:49:29.144Z,27.13
2023-02-11T15:51:59.264Z,25.83
2023-02-11T15:54:31.605Z,28.00
2023-02-11T15:57:09.596Z,28.65
2023-02-11T15:59:41.731Z,27.33
2023-02-11T16:02:17.367Z,26.60
2023-02-11T16:04:51.982Z,27.90
2023-02-11T16:07:45.187Z,28.60
2023-02-11T16:10:22.564Z,31.23
2023-02-11T16:12:56.350Z,28.45
2023-02-11T16:15:49.321Z,28.38
2023-02-11T16:18:37.890Z,29.48
2023-02-11T16:21:13.345Z,29.27
2023-02-11T16:23:43.376Z,32.15
2023-02-11T16:26:22.019Z,30.50
2023-02-11T16:28:50.821Z,31.33
2023-02-11T16:31:21.192Z,30.88
2023-02-11T16:33:49.700Z,33.40
2023-02-11T16:36:18.285Z,32.05
2023-02-11T16:38:46.493Z,32.65
2023-02-11T16:41:15.080Z,31.80
2023-02-11T16:43:43.295Z,31.08
2023-02-11T16:46:15.416Z,30.60
2023-02-11T16:48:46.727Z,32.92
2023-02-11T16:51:14.968Z,31.38
2023-02-11T16:53:43.120Z,32.40
2023-02-11T16:56:16.649Z,31.05
2023-02-11T16:58:46.340Z,33.45
2023-02-11T17:01:14.696Z,32.95
2023-02-11T17:03:45.596Z,33.17
2023-02-11T17:06:14.748Z,32.80
2023-02-11T17:08:43.201Z,32.75
2023-02-11T17:11:16.779Z,31.15
2023-02-11T17:13:45.752Z,31.17
2023-02-11T17:16:19.011Z,31.83
2023-02-11T17:18:49.599Z,30.77
2023-02-11T17:21:18.764Z,32.25
2023-02-11T17:23:47.517Z,30.25
2023-02-11T17:26:15.911Z,30.77
2023-02-11T17:28:44.674Z,30.55
2023-02-11T17:31:13.078Z,31.33
2023-02-11T17:33:41.448Z,29.85
2023-02-11T17:36:11.997Z,31.15
2023-02-11T17:38:40.184Z,29.73
2023-02-11T17:41:08.422Z,30.48
2023-02-11T17:43:36.691Z,28.52
2023-02-11T17:46:08.472Z,31.00
2023-02-11T17:48:38.589Z,30.48
2023-02-11T17:51:08.849Z,30.55
2023-02-11T17:53:38.561Z,29.90
2023-02-11T17:56:09.061Z,28.60
2023-02-11T17:58:37.947Z,30.52
2023-02-11T18:01:06.743Z,29.70
2023-02-11T18:03:35.917Z,31.30
2023-02-11T18:06:05.655Z,31.73
2023-02-11T18:08:34.549Z,29.95
2023-02-11T18:11:04.453Z,33.35
2023-02-11T18:13:32.713Z,33.83
2023-02-11T18:16:04.274Z,30.30
2023-02-11T18:18:32.966Z,32.63
2023-02-11T18:21:02.991Z,32.67
2023-02-11T18:23:31.638Z,33.38
2023-02-11T18:26:00.852Z,32.22
2023-02-11T18:28:30.602Z,32.03
2023-02-11T18:31:00.441Z,33.90
2023-02-11T18:33:31.222Z,32.22
2023-02-11T18:35:59.532Z,33.55
2023-02-11T18:38:30.237Z,32.67
2023-02-11T18:40:59.437Z,33.10
2023-02-11T18:43:31.715Z,34.70
2023-02-11T18:46:02.497Z,34.70
2023-02-11T18:48:31.018Z,32.83
2023-02-11T18:50:59.380Z,32.63
2023-02-11T18:53:27.958Z,31.83
2023-02-11T18:55:56.231Z,36.33
2023-02-11T18:58:24.946Z,32.08
2023-02-11T19:00:53.198Z,32.65
2023-02-11T19:03:24.609Z,33.17
2023-02-11T19:05:52.978Z,32.60
2023-02-11T19:08:21.634Z,34.47
2023-02-11T19:10:50.440Z,33.65
2023-02-11T19:13:18.862Z,32.97
2023-02-11T19:15:48.337Z,33.17
2023-02-11T19:18:18.454Z,31.40
2023-02-11T19:20:49.985Z,33.33
2023-02-11T19:23:18.506Z,33.95
2023-02-11T19:25:50.604Z,36.20
2023-02-11T19:28:19.114Z,36.53
2023-02-11T19:30:47.740Z,36.33
2023-02-11T19:33:16.189Z,34.67
2023-02-11T19:35:45.576Z,35.70
2023-02-11T19:38:20.306Z,33.35
2023-02-11T19:40:56.860Z,33.50
2023-02-11T19:43:26.840Z,33.40
2023-02-11T19:45:56.305Z,34.03
2023-02-11T19:48:25.440Z,33.50
2023-02-11T19:50:54.613Z,33.47
2023-02-11T19:53:26.919Z,33.80
2023-02-11T19:55:56.998Z,32.75
2023-02-11T19:58:25.482Z,33.55
2023-02-11T20:00:54.117Z,34.22
2023-02-11T20:03:23.610Z,35.67
2023-02-11T20:05:54.968Z,34.45
2023-02-11T20:08:25.535Z,34.72
2023-02-11T20:10:53.969Z,34.58
2023-02-11T20:13:23.340Z,34.17
2023-02-11T20:15:53.029Z,35.63
2023-02-11T20:18:21.908Z,36.58
2023-02-11T20:20:53.405Z,37.08
2023-02-11T20:23:24.201Z,35.42
2023-02-11T20:25:54.727Z,36.25
2023-02-11T20:28:23.420Z,36.63
2023-02-11T20:30:59.273Z,35.45
2023-02-11T20:33:29.827Z,35.90
2023-02-11T20:35:59.248Z,36.75
2023-02-11T20:38:28.044Z,36.53
2023-02-11T20:41:04.411Z,35.17
2023-02-11T20:43:32.845Z,35.40
2023-02-11T20:46:03.895Z,38.60
2023-02-11T20:48:33.408Z,36.75
2023-02-11T20:51:06.937Z,37.35
2023-02-11T20:53:35.837Z,38.65
2023-02-11T20:56:06.643Z,36.72
2023-02-11T20:58:35.918Z,38.97
2023-02-11T21:01:09.197Z,38.88
2023-02-11T21:03:39.160Z,36.83
2023-02-11T21:06:08.130Z,36.35
2023-02-11T21:08:36.628Z,37.28
2023-02-11T21:11:09.371Z,36.80
2023-02-11T21:13:38.522Z,36.63
2023-02-11T21:16:07.747Z,34.90
2023-02-11T21:18:36.679Z,36.38
2023-02-11T21:21:06.984Z,36.40
2023-02-11T21:23:35.816Z,34.53
2023-02-11T21:26:07.682Z,36.10
2023-02-11T21:28:39.119Z,37.60
2023-02-11T21:31:09.163Z,35.55
2023-02-11T21:33:37.928Z,35.97
2023-02-11T21:36:07.929Z,34.30
2023-02-11T21:38:38.487Z,34.40
2023-02-11T21:41:08.305Z,34.78
2023-02-11T21:43:36.784Z,35.17
2023-02-11T21:46:09.917Z,35.10
2023-02-11T21:48:39.729Z,34.58
2023-02-11T21:51:10.272Z,34.88
2023-02-11T21:53:39.842Z,34.30
2023-02-11T21:56:12.080Z,33.72
2023-02-11T21:58:40.896Z,34.33
2023-02-11T22:01:14.635Z,33.25
2023-02-11T22:03:42.899Z,33.08
2023-02-11T22:06:12.830Z,35.15
2023-02-11T22:08:42.070Z,34.08
2023-02-11T22:11:13.063Z,33.53
2023-02-11T22:13:44.164Z,33.50
2023-02-11T22:16:14.382Z,34.42
2023-02-11T22:18:44.570Z,34.78
2023-02-11T22:21:14.836Z,34.47
2023-02-11T22:23:43.276Z,35.40
2023-02-11T22:26:15.486Z,37.15
2023-02-11T22:28:44.166Z,36.00
2023-02-11T22:31:14.406Z,37.15
2023-02-11T22:33:42.887Z,36.55
2023-02-11T22:36:17.065Z,37.53
2023-02-11T22:38:45.618Z,38.20
2023-02-11T22:41:16.008Z,39.22
2023-02-11T22:43:47.018Z,37.75
2023-02-11T22:46:17.911Z,38.22
2023-02-11T22:48:46.950Z,36.90
2023-02-11T22:51:17.516Z,35.30
2023-02-11T22:53:45.945Z,34.60
2023-02-11T22:56:16.043Z,35.00
2023-02-11T22:58:46.557Z,36.05
2023-02-11T23:01:15.284Z,35.85
2023-02-11T23:03:43.921Z,35.00
2023-02-11T23:06:12.988Z,35.30
2023-02-11T23:08:42.983Z,35.00
2023-02-11T23:11:14.264Z,34.42
2023-02-11T23:13:46.208Z,35.70
2023-02-11T23:16:16.885Z,35.38
2023-02-11T23:18:47.305Z,35.88
2023-02-11T23:21:18.512Z,36.20
2023-02-11T23:23:46.935Z,34.85
2023-02-11T23:26:18.783Z,33.78
2023-02-11T23:28:50.149Z,36.13
2023-02-11T23:31:22.144Z,35.72
2023-02-11T23:33:51.321Z,36.50
2023-02-11T23:36:22.882Z,35.85
2023-02-11T23:38:51.445Z,35.90
2023-02-11T23:41:20.945Z,35.88
2023-02-11T23:43:52.720Z,34.88
2023-02-11T23:46:21.930Z,34.55
2023-02-11T23:48:50.829Z,36.40
2023-02-11T23:51:19.934Z,35.47
2023-02-11T23:53:49.424Z,35.45
2023-02-11T23:56:20.725Z,35.38
2023-02-11T23:58:49.800Z,34.05
